createdAt,value
2022-09-22T00:04:21.672Z,7.4
2022-09-22T00:09:23.707Z,7.4
2022-09-22T00:15:02.235Z,7.4
2022-09-22T00:20:04.157Z,7.3
2022-09-22T00:25:06.456Z,7.3
2022-09-22T00:30:08.390Z,7.2
2022-09-22T00:35:10.407Z,7.1
2022-09-22T00:40:12.451Z,7.1
2022-09-22T00:45:14.735Z,7.2
2022-09-22T00:50:16.734Z,6.9
2022-09-22T00:55:18.628Z,6.8
2022-09-22T01:00:20.533Z,6.8
2022-09-22T01:05:22.612Z,7
2022-09-22T01:10:24.632Z,7
2022-09-22T01:15:26.673Z,7
2022-09-22T01:20:28.659Z,6.9
2022-09-22T01:25:30.821Z,7
2022-09-22T01:30:32.956Z,7.2
2022-09-22T01:35:35.027Z,7.3
2022-09-22T01:40:37.216Z,7.1
2022-09-22T01:45:39.423Z,7.2
2022-09-22T01:50:41.465Z,7.4
2022-09-22T01:55:43.471Z,7.5
2022-09-22T02:00:45.689Z,7.8
2022-09-22T02:05:48.087Z,7.8
2022-09-22T02:10:50.207Z,7.8
2022-09-22T02:15:52.464Z,8.1
2022-09-22T02:20:54.477Z,8.1
2022-09-22T02:25:56.609Z,8
2022-09-22T02:31:21.991Z,8
2022-09-22T02:36:04.061Z,8
2022-09-22T02:41:06.402Z,8
2022-09-22T02:46:08.542Z,7.9
2022-09-22T02:51:10.763Z,7.8
2022-09-22T02:56:12.813Z,7.7
2022-09-22T03:01:15.156Z,7.8
2022-09-22T03:06:17.190Z,8
2022-09-22T03:11:19.286Z,8
2022-09-22T03:16:21.835Z,8
2022-09-22T03:21:23.927Z,8
2022-09-22T03:26:26.160Z,8
2022-09-22T03:31:28.207Z,7.9
2022-09-22T03:36:30.375Z,8
2022-09-22T03:41:32.262Z,8
2022-09-22T03:46:34.248Z,7.9
2022-09-22T03:51:36.243Z,8
2022-09-22T03:56:38.353Z,8.1
2022-09-22T04:01:40.660Z,8.2
2022-09-22T04:06:42.911Z,8.1
2022-09-22T04:11:44.822Z,8.1
2022-09-22T04:16:46.834Z,8
2022-09-22T04:21:56.324Z,7.8
2022-09-22T04:27:21.642Z,7.3
2022-09-22T04:31:53.546Z,7.3
2022-09-22T04:36:55.552Z,7.2
2022-09-22T04:41:57.539Z,7.2
2022-09-22T04:47:00.232Z,7.3
2022-09-22T04:52:02.151Z,7.3
2022-09-22T04:57:04.244Z,7.3
2022-09-22T05:02:06.253Z,7.4
2022-09-22T05:07:08.363Z,7.6
2022-09-22T05:12:10.256Z,7.7
2022-09-22T05:17:12.253Z,7.8
2022-09-22T05:22:14.255Z,7.8
2022-09-22T05:27:16.263Z,8
2022-09-22T05:32:18.307Z,8.3
2022-09-22T05:37:20.265Z,8.6
2022-09-22T05:42:22.296Z,8.4
2022-09-22T05:47:24.243Z,8.5
2022-09-22T05:52:26.424Z,8.9
2022-09-22T05:57:28.308Z,8.8
2022-09-22T06:02:30.493Z,8.7
2022-09-22T06:07:32.604Z,8.6
2022-09-22T06:12:34.554Z,8.8
2022-09-22T06:17:36.450Z,8.8
2022-09-22T06:22:38.479Z,8.7
2022-09-22T06:27:40.508Z,8.9
2022-09-22T06:32:43.008Z,8.9
2022-09-22T06:37:45.021Z,9
2022-09-22T06:42:47.006Z,9.2
2022-09-22T06:47:49.090Z,10.2
2022-09-22T06:52:51.035Z,10.8
2022-09-22T06:57:52.997Z,11.5
2022-09-22T07:02:55.015Z,11.4
2022-09-22T07:07:57.068Z,11
2022-09-22T07:12:59.016Z,10.9
2022-09-22T07:18:01.127Z,10.2
2022-09-22T07:23:03.108Z,10.3
2022-09-22T07:28:05.299Z,10.3
2022-09-22T07:33:07.321Z,10.1
2022-09-22T07:38:09.299Z,10.3
2022-09-22T07:43:11.289Z,10.4
2022-09-22T07:48:13.226Z,11.1
2022-09-22T07:53:15.111Z,11.8
2022-09-22T07:58:19.222Z,12.1
2022-09-22T08:03:21.248Z,12.1
2022-09-22T08:08:23.173Z,11.9
2022-09-22T08:13:25.171Z,12.2
2022-09-22T08:18:27.193Z,12.3
2022-09-22T08:23:29.258Z,12.3
2022-09-22T08:28:31.576Z,12.1
2022-09-22T08:33:33.953Z,11.5
2022-09-22T08:38:35.966Z,11.5
2022-09-22T08:43:38.030Z,10.8
2022-09-22T08:48:40.423Z,11.3
2022-09-22T08:53:42.425Z,11.2
2022-09-22T08:58:44.362Z,11.4
2022-09-22T09:03:46.406Z,11.5
2022-09-22T09:08:48.530Z,11.4
2022-09-22T09:13:50.498Z,11.4
2022-09-22T09:18:52.385Z,11.4
2022-09-22T09:29:05.392Z,12.3
2022-09-22T09:34:07.569Z,12.3
2022-09-22T09:39:09.661Z,12.6
2022-09-22T09:44:11.629Z,13
2022-09-22T09:49:18.117Z,14.1
2022-09-22T09:54:20.122Z,14.8
2022-09-22T09:59:22.076Z,15.3
2022-09-22T10:04:23.935Z,15.5
2022-09-22T10:09:25.836Z,14.9
2022-09-22T10:14:27.762Z,15.2
2022-09-22T10:19:29.910Z,15.1
2022-09-22T10:24:31.900Z,16.6
2022-09-22T10:29:34.035Z,17
2022-09-22T10:34:36.664Z,16.1
2022-09-22T10:44:49.608Z,17.8
2022-09-22T10:49:41.591Z,17.8
2022-09-22T10:59:44.128Z,18.8
2022-09-22T11:04:46.331Z,23.2
2022-09-22T11:14:49.157Z,20.2
2022-09-22T11:19:51.368Z,20.1
2022-09-22T11:24:53.968Z,20.7
2022-09-22T11:29:55.938Z,20.6
2022-09-22T11:34:57.999Z,22.1
2022-09-22T11:40:00.070Z,25.6
2022-09-22T11:45:02.080Z,27
2022-09-22T11:50:04.166Z,28.6
2022-09-22T11:55:06.178Z,29.1
2022-09-22T12:00:08.178Z,27.9
2022-09-22T12:05:10.471Z,27.9
2022-09-22T12:10:12.401Z,27.2
2022-09-22T12:15:14.334Z,27.8
2022-09-22T12:20:16.455Z,26.6
2022-09-22T12:25:49.487Z,25.6
2022-09-22T12:30:21.586Z,25
2022-09-22T12:35:30.871Z,23.8
2022-09-22T12:40:34.402Z,22.9
2022-09-22T12:45:36.772Z,22.8
2022-09-22T12:50:38.880Z,23.6
2022-09-22T12:55:41.131Z,22.9
2022-09-22T13:00:43.147Z,21.8
2022-09-22T13:05:48.846Z,21.3
2022-09-22T13:10:50.793Z,21.2
2022-09-22T13:15:52.730Z,21.6
2022-09-22T13:20:54.779Z,20.9
2022-09-22T13:25:57.020Z,21.1
2022-09-22T13:31:01.188Z,19.4
2022-09-22T13:36:08.050Z,19.3
2022-09-22T13:41:10.171Z,19.5
2022-09-22T13:46:12.642Z,18.4
2022-09-22T13:51:14.786Z,18.3
2022-09-22T13:56:23.207Z,18.4
2022-09-22T14:01:25.721Z,18.3
2022-09-22T14:06:27.837Z,18.3
2022-09-22T14:11:29.930Z,17.4
2022-09-22T14:16:32.398Z,16.9
2022-09-22T14:21:34.527Z,16.9
2022-09-22T14:26:36.569Z,17
2022-09-22T14:31:39.085Z,16.8
2022-09-22T14:36:41.218Z,16.8
2022-09-22T14:41:43.294Z,16.8
2022-09-22T14:46:45.756Z,16.3
2022-09-22T14:51:47.692Z,16.3
2022-09-22T14:56:49.798Z,16.3
2022-09-22T15:01:52.376Z,16.4
2022-09-22T15:06:54.532Z,16.4
2022-09-22T15:11:58.184Z,16.4
2022-09-22T15:17:00.323Z,16.4
2022-09-22T15:22:02.178Z,16.3
2022-09-22T15:27:03.998Z,16.1
2022-09-22T15:32:06.357Z,15.8
2022-09-22T15:37:08.616Z,15.8
2022-09-22T15:42:12.375Z,15.7
2022-09-22T15:47:14.412Z,15.6
2022-09-22T15:52:16.319Z,15.5
2022-09-22T15:57:18.399Z,15.3
2022-09-22T16:02:20.535Z,15.3
2022-09-22T16:07:22.655Z,15.1
2022-09-22T16:12:25.440Z,14.8
2022-09-22T16:17:27.463Z,14.8
2022-09-22T16:22:29.418Z,14.8
2022-09-22T16:27:31.654Z,14.6
2022-09-22T16:32:34.137Z,14.2
2022-09-22T16:37:36.266Z,14.2
2022-09-22T16:42:38.404Z,14
2022-09-22T16:47:40.406Z,13.9
2022-09-22T16:52:42.359Z,13.6
2022-09-22T16:57:44.281Z,13.5
2022-09-22T17:02:46.240Z,13.4
2022-09-22T17:07:48.258Z,13.2
2022-09-22T17:12:50.301Z,13.1
2022-09-22T17:17:52.881Z,12.8
2022-09-22T17:22:54.771Z,12.7
2022-09-22T17:27:56.870Z,12.7
2022-09-22T17:32:58.893Z,12.6
2022-09-22T17:38:01.176Z,12.5
2022-09-22T17:43:03.727Z,12.2
2022-09-22T17:48:05.845Z,12.1
2022-09-22T17:53:07.991Z,12
2022-09-22T17:58:10.115Z,11.8
2022-09-22T18:03:13.301Z,11.5
2022-09-22T18:08:15.497Z,11.4
2022-09-22T18:13:17.536Z,11.4
2022-09-22T18:18:19.637Z,11.2
2022-09-22T18:23:23.061Z,11.1
2022-09-22T18:28:29.560Z,11.1
2022-09-22T18:33:32.485Z,10.7
2022-09-22T18:38:34.624Z,10.7
2022-09-22T18:43:36.566Z,10.7
2022-09-22T18:48:38.451Z,10.7
2022-09-22T18:53:43.215Z,10.7
2022-09-22T18:58:45.163Z,10.7
2022-09-22T19:03:47.027Z,10.7
2022-09-22T19:08:49.093Z,10.9
2022-09-22T19:13:51.613Z,10.6
2022-09-22T19:18:54.165Z,10.7
2022-09-22T19:23:56.069Z,10.6
2022-09-22T19:29:01.033Z,10.8
2022-09-22T19:34:08.309Z,10.6
2022-09-22T19:39:10.645Z,10.5
2022-09-22T19:44:12.794Z,10.6
2022-09-22T19:49:15.070Z,10.6
2022-09-22T19:54:17.118Z,10.6
2022-09-22T19:59:19.083Z,10.6
2022-09-22T20:04:21.053Z,10.6
2022-09-22T20:09:23.002Z,10.7
2022-09-22T20:14:24.896Z,10.7
2022-09-22T20:19:26.846Z,10.7
2022-09-22T20:24:29.119Z,10.6
2022-09-22T20:29:31.064Z,10.4
2022-09-22T20:34:33.057Z,10.4
2022-09-22T20:39:35.249Z,10.3
2022-09-22T20:44:37.645Z,10.2
2022-09-22T20:49:39.648Z,10.2
2022-09-22T20:54:41.582Z,10.2
2022-09-22T20:59:43.927Z,10.3
2022-09-22T21:04:46.417Z,10.3
2022-09-22T21:09:48.361Z,10.2
2022-09-22T21:14:50.189Z,10.3
2022-09-22T21:19:52.460Z,10.3
2022-09-22T21:24:54.399Z,10.2
2022-09-22T21:29:56.376Z,10.2
2022-09-22T21:34:58.500Z,10.1
2022-09-22T21:40:00.703Z,10
2022-09-22T21:45:02.703Z,9.9
2022-09-22T21:50:04.811Z,9.6
2022-09-22T21:55:06.890Z,9.5
2022-09-22T22:00:08.959Z,9.3
2022-09-22T22:05:11.376Z,9.1
2022-09-22T22:10:13.741Z,9
2022-09-22T22:15:15.910Z,9
2022-09-22T22:20:18.044Z,9
2022-09-22T22:25:19.974Z,9
2022-09-22T22:30:22.106Z,9
2022-09-22T22:35:24.381Z,9
2022-09-22T22:40:26.577Z,9
2022-09-22T22:45:28.646Z,9
2022-09-22T22:50:31.003Z,8.8
2022-09-22T22:55:32.993Z,8.8
2022-09-22T23:00:34.988Z,8.7
2022-09-22T23:05:44.156Z,8.6
2022-09-22T23:10:46.526Z,8.6
2022-09-22T23:15:48.548Z,8.4
2022-09-22T23:20:50.685Z,8.3
2022-09-22T23:25:52.702Z,8.4
2022-09-22T23:30:54.868Z,8.4
2022-09-22T23:35:56.869Z,8.5
2022-09-22T23:40:58.875Z,8.5
2022-09-22T23:46:01.046Z,8.8
2022-09-22T23:51:03.095Z,8.8
2022-09-22T23:56:05.022Z,8.8
